createdAt,value
2019-05-02T00:00:54.029Z,3.07
2019-05-02T00:01:36.419Z,2.50
2019-05-02T00:02:15.464Z,2.20
2019-05-02T00:02:52.593Z,2.73
2019-05-02T00:03:29.959Z,1.97
2019-05-02T00:04:12.339Z,1.73
2019-05-02T00:04:46.574Z,2.10
2019-05-02T00:05:27.314Z,1.80
2019-05-02T00:06:02.932Z,2.23
2019-05-02T00:06:44.090Z,2.00
2019-05-02T00:07:21.798Z,2.03
2019-05-02T00:07:59.652Z,2.57
2019-05-02T00:08:36.641Z,2.40
2019-05-02T00:09:13.644Z,2.77
2019-05-02T00:09:50.950Z,3.03
2019-05-02T00:10:27.315Z,2.83
2019-05-02T00:11:04.717Z,2.70
2019-05-02T00:11:41.855Z,3.40
2019-05-02T00:12:18.751Z,2.63
2019-05-02T00:12:55.368Z,3.57
2019-05-02T00:13:34.996Z,2.53
2019-05-02T00:14:11.906Z,3.23
2019-05-02T00:14:50.460Z,3.43
2019-05-02T00:15:26.885Z,2.77
2019-05-02T00:16:03.810Z,3.40
2019-05-02T00:16:40.018Z,3.40
2019-05-02T00:17:20.336Z,2.87
2019-05-02T00:17:56.771Z,3.73
2019-05-02T00:18:37.332Z,3.50
2019-05-02T00:19:13.927Z,3.40
2019-05-02T00:19:51.289Z,3.67
2019-05-02T00:20:27.866Z,4.27
2019-05-02T00:21:05.166Z,3.50
2019-05-02T00:21:43.087Z,4.10
2019-05-02T00:22:20.202Z,2.77
2019-05-02T00:22:56.782Z,2.97
2019-05-02T00:23:33.104Z,3.50
2019-05-02T00:24:11.166Z,4.03
2019-05-02T00:24:47.587Z,4.27
2019-05-02T00:25:24.283Z,4.80
2019-05-02T00:26:01.249Z,3.70
2019-05-02T00:26:37.903Z,3.93
2019-05-02T00:27:17.420Z,3.60
2019-05-02T00:27:54.395Z,3.93
2019-05-02T00:28:30.608Z,4.00
2019-05-02T00:29:06.995Z,4.40
2019-05-02T00:29:43.932Z,4.30
2019-05-02T00:30:20.366Z,4.37
2019-05-02T00:30:57.234Z,4.60
2019-05-02T00:31:36.246Z,4.40
2019-05-02T00:32:12.548Z,3.43
2019-05-02T00:32:48.753Z,4.27
2019-05-02T00:33:29.339Z,4.23
2019-05-02T00:34:07.690Z,4.13
2019-05-02T00:34:44.443Z,4.03
2019-05-02T00:35:21.268Z,4.03
2019-05-02T00:35:57.873Z,3.60
2019-05-02T00:36:33.981Z,4.13
2019-05-02T00:37:10.729Z,3.80
2019-05-02T00:37:47.000Z,4.03
2019-05-02T00:38:23.401Z,4.43
2019-05-02T00:38:59.792Z,3.77
2019-05-02T00:39:36.098Z,4.63
2019-05-02T00:40:12.322Z,4.50
2019-05-02T00:40:50.719Z,5.27
2019-05-02T00:41:28.563Z,4.70
2019-05-02T00:42:12.498Z,4.03
2019-05-02T00:42:43.243Z,4.37
2019-05-02T00:43:19.555Z,4.70
2019-05-02T00:43:55.968Z,5.23
2019-05-02T00:44:32.607Z,4.17
2019-05-02T00:45:09.410Z,5.43
2019-05-02T00:45:49.025Z,5.00
2019-05-02T00:46:25.571Z,5.47
2019-05-02T00:47:10.850Z,5.50
2019-05-02T00:47:58.159Z,5.17
2019-05-02T00:48:42.076Z,4.13
2019-05-02T00:49:18.287Z,5.47
2019-05-02T00:49:54.884Z,5.20
2019-05-02T00:50:35.366Z,4.40
2019-05-02T00:51:14.332Z,3.60
2019-05-02T00:51:51.079Z,4.20
2019-05-02T00:52:27.707Z,4.80
2019-05-02T00:53:07.146Z,3.77
2019-05-02T00:53:44.370Z,5.00
2019-05-02T00:54:24.257Z,4.57
2019-05-02T00:55:01.721Z,4.13
2019-05-02T00:55:38.567Z,5.07
2019-05-02T00:56:15.165Z,4.60
2019-05-02T00:56:51.729Z,4.30
2019-05-02T00:57:30.487Z,4.20
2019-05-02T00:58:07.072Z,3.27
2019-05-02T00:58:43.524Z,4.13
2019-05-02T00:59:19.862Z,4.63
2019-05-02T00:59:56.872Z,4.80
2019-05-02T01:00:48.586Z,5.07
2019-05-02T01:01:43.493Z,4.73
2019-05-02T01:02:35.866Z,4.00
2019-05-02T01:03:16.168Z,4.93
2019-05-02T01:03:54.818Z,4.60
2019-05-02T01:04:34.399Z,4.87
2019-05-02T01:05:15.518Z,4.43
2019-05-02T01:05:52.167Z,4.43
2019-05-02T01:06:29.059Z,3.93
2019-05-02T01:07:06.162Z,4.90
2019-05-02T01:07:42.339Z,4.57
2019-05-02T01:08:18.722Z,5.30
2019-05-02T01:08:56.856Z,4.30
2019-05-02T01:09:33.742Z,4.20
2019-05-02T01:10:10.160Z,4.93
2019-05-02T01:10:46.359Z,5.23
2019-05-02T01:11:22.682Z,5.17
2019-05-02T01:12:03.174Z,4.67
2019-05-02T01:12:40.021Z,5.23
2019-05-02T01:13:19.203Z,4.20
2019-05-02T01:13:57.720Z,4.77
2019-05-02T01:14:34.265Z,3.90
2019-05-02T01:15:10.973Z,5.20
2019-05-02T01:15:49.310Z,5.30
2019-05-02T01:16:25.621Z,4.60
2019-05-02T01:17:04.889Z,4.57
2019-05-02T01:17:41.335Z,4.20
2019-05-02T01:18:17.636Z,5.03
2019-05-02T01:18:54.275Z,4.97
2019-05-02T01:19:31.154Z,5.20
2019-05-02T01:20:08.499Z,4.90
2019-05-02T01:20:45.496Z,4.37
2019-05-02T01:21:24.618Z,5.13
2019-05-02T01:22:01.764Z,4.40
2019-05-02T01:22:41.319Z,4.37
2019-05-02T01:23:18.191Z,5.20
2019-05-02T01:23:58.901Z,4.80
2019-05-02T01:24:34.280Z,4.57
2019-05-02T01:25:15.367Z,3.70
2019-05-02T01:25:52.766Z,4.20
2019-05-02T01:26:33.064Z,3.53
2019-05-02T01:27:27.312Z,4.27
2019-05-02T01:28:18.833Z,4.47
2019-05-02T01:29:01.508Z,3.77
2019-05-02T01:30:01.630Z,3.93
2019-05-02T01:31:02.422Z,4.13
2019-05-02T01:32:08.304Z,4.63
2019-05-02T01:32:55.134Z,3.43
2019-05-02T01:33:41.942Z,4.13
2019-05-02T01:34:37.833Z,3.80
2019-05-02T01:35:21.507Z,3.77
2019-05-02T01:36:08.804Z,3.80
2019-05-02T01:37:04.503Z,3.43
2019-05-02T01:38:15.780Z,3.60
2019-05-02T01:38:52.784Z,3.60
2019-05-02T01:39:32.198Z,3.07
2019-05-02T01:40:13.048Z,4.07
2019-05-02T01:40:53.098Z,3.40
2019-05-02T01:41:31.100Z,3.70
2019-05-02T01:42:12.924Z,3.63
2019-05-02T01:42:51.014Z,3.83
2019-05-02T01:43:29.752Z,3.57
2019-05-02T01:44:10.747Z,3.47
2019-05-02T01:44:48.202Z,3.67
2019-05-02T01:45:26.109Z,3.17
2019-05-02T01:46:03.268Z,3.00
2019-05-02T01:46:39.689Z,3.50
2019-05-02T01:47:17.418Z,3.60
2019-05-02T01:47:53.785Z,2.70
2019-05-02T01:48:30.468Z,3.07
2019-05-02T01:49:06.968Z,3.30
2019-05-02T01:49:45.775Z,3.50
2019-05-02T01:50:24.288Z,2.93
2019-05-02T01:51:04.533Z,2.77
2019-05-02T01:51:42.010Z,3.00
2019-05-02T01:52:23.657Z,2.63
2019-05-02T01:53:00.868Z,2.43
2019-05-02T01:53:37.356Z,2.80
2019-05-02T01:54:16.652Z,2.70
2019-05-02T01:54:53.223Z,3.43
2019-05-02T01:55:36.538Z,2.80
2019-05-02T01:56:13.300Z,3.27
2019-05-02T01:56:50.352Z,2.87
2019-05-02T01:57:26.692Z,2.60
2019-05-02T01:58:03.069Z,3.20
2019-05-02T01:58:39.865Z,3.73
2019-05-02T01:59:16.160Z,3.20
2019-05-02T01:59:53.625Z,2.80
2019-05-02T02:00:31.198Z,3.57
2019-05-02T02:01:07.693Z,2.93
2019-05-02T02:01:44.012Z,4.07
2019-05-02T02:02:20.292Z,4.07
2019-05-02T02:02:56.686Z,3.97
2019-05-02T02:03:34.002Z,4.10
2019-05-02T02:04:20.999Z,3.40
2019-05-02T02:04:59.310Z,2.90
2019-05-02T02:05:38.140Z,4.00
2019-05-02T02:06:15.155Z,2.80
2019-05-02T02:06:52.730Z,3.80
2019-05-02T02:07:29.022Z,3.90
2019-05-02T02:08:05.773Z,3.83
2019-05-02T02:08:42.437Z,3.43
2019-05-02T02:09:21.285Z,3.23
2019-05-02T02:09:57.574Z,3.70
2019-05-02T02:10:35.370Z,4.07
2019-05-02T02:11:12.546Z,3.63
2019-05-02T02:11:49.716Z,4.57
2019-05-02T02:12:26.455Z,4.67
2019-05-02T02:13:05.061Z,4.03
2019-05-02T02:13:42.066Z,4.53
2019-05-02T02:14:19.058Z,4.03
2019-05-02T02:14:55.790Z,4.57
2019-05-02T02:15:33.640Z,4.23
2019-05-02T02:16:10.824Z,4.70
2019-05-02T02:16:47.369Z,4.47
2019-05-02T02:17:24.983Z,4.43
2019-05-02T02:18:02.686Z,4.13
2019-05-02T02:18:46.941Z,3.73
2019-05-02T02:19:34.661Z,5.00
2019-05-02T02:20:14.028Z,4.13
2019-05-02T02:21:09.919Z,3.55
2019-05-02T02:22:08.379Z,3.60
2019-05-02T02:23:02.149Z,4.63
2019-05-02T02:24:00.725Z,4.00
2019-05-02T02:24:47.356Z,4.00
2019-05-02T02:25:37.390Z,4.95
2019-05-02T02:26:14.213Z,4.07
2019-05-02T02:26:53.591Z,4.10
2019-05-02T02:27:30.259Z,4.83
2019-05-02T02:28:07.259Z,4.00
2019-05-02T02:28:43.510Z,4.03
2019-05-02T02:29:19.719Z,5.00
2019-05-02T02:29:56.014Z,4.27
2019-05-02T02:30:33.332Z,4.10
2019-05-02T02:31:12.357Z,3.20
2019-05-02T02:31:49.369Z,4.67
2019-05-02T02:32:32.275Z,4.30
2019-05-02T02:33:09.839Z,4.67
2019-05-02T02:33:47.635Z,4.23
2019-05-02T02:34:29.279Z,3.97
2019-05-02T02:35:09.914Z,3.40
2019-05-02T02:35:50.368Z,4.33
2019-05-02T02:36:31.814Z,4.00
2019-05-02T02:37:12.462Z,4.17
2019-05-02T02:37:53.308Z,4.30
2019-05-02T02:38:26.842Z,4.13
2019-05-02T02:39:06.843Z,4.50
2019-05-02T02:39:54.286Z,3.90
2019-05-02T02:40:33.749Z,4.43
2019-05-02T02:41:13.116Z,3.90
2019-05-02T02:41:52.537Z,4.27
2019-05-02T02:42:34.057Z,4.40
2019-05-02T02:43:30.277Z,4.70
2019-05-02T02:44:04.657Z,4.00
2019-05-02T02:44:51.563Z,4.13
2019-05-02T02:45:57.587Z,4.20
2019-05-02T02:46:38.063Z,4.10
2019-05-02T02:47:18.807Z,4.23
2019-05-02T02:47:59.841Z,4.17
2019-05-02T02:48:33.935Z,4.20
2019-05-02T02:49:14.028Z,3.47
2019-05-02T02:49:49.538Z,3.93
2019-05-02T02:50:29.469Z,3.57
2019-05-02T02:51:06.338Z,4.50
2019-05-02T02:51:42.606Z,5.00
2019-05-02T02:52:18.982Z,3.87
2019-05-02T02:52:56.073Z,4.27
2019-05-02T02:53:32.302Z,4.07
2019-05-02T02:54:09.329Z,3.63
2019-05-02T02:54:48.851Z,3.83
2019-05-02T02:55:26.332Z,4.53
2019-05-02T02:56:04.102Z,3.80
2019-05-02T02:56:40.945Z,3.63
2019-05-02T02:57:27.994Z,3.47
2019-05-02T02:58:04.680Z,3.50
2019-05-02T02:58:45.516Z,4.20
2019-05-02T02:59:26.263Z,3.63
2019-05-02T03:00:07.290Z,3.70
2019-05-02T03:00:41.569Z,4.00
2019-05-02T03:01:27.232Z,3.07
2019-05-02T03:01:56.535Z,3.73
2019-05-02T03:02:32.792Z,3.20
2019-05-02T03:03:09.476Z,3.10
2019-05-02T03:03:46.085Z,3.00
2019-05-02T03:04:22.372Z,3.10
2019-05-02T03:04:58.650Z,2.80
2019-05-02T03:05:39.578Z,2.30
2019-05-02T03:06:16.038Z,2.10
2019-05-02T03:06:52.390Z,2.30
2019-05-02T03:07:31.479Z,3.03
2019-05-02T03:08:08.206Z,2.20
2019-05-02T03:08:48.709Z,2.27
2019-05-02T03:09:26.703Z,2.00
2019-05-02T03:10:06.328Z,2.57
2019-05-02T03:10:45.178Z,2.50
2019-05-02T03:11:23.534Z,2.30
2019-05-02T03:12:18.158Z,2.37
2019-05-02T03:13:15.027Z,1.30
2019-05-02T03:14:05.592Z,1.47
2019-05-02T03:14:41.075Z,1.63
2019-05-02T03:15:20.817Z,2.20
2019-05-02T03:16:00.455Z,1.50
2019-05-02T03:16:46.075Z,1.37
2019-05-02T03:17:20.262Z,1.90
2019-05-02T03:17:59.995Z,1.60
2019-05-02T03:18:39.486Z,2.23
2019-05-02T03:19:14.631Z,1.83
2019-05-02T03:19:54.333Z,1.80
2019-05-02T03:20:39.590Z,1.63
2019-05-02T03:21:13.647Z,1.57
2019-05-02T03:22:03.801Z,1.53
2019-05-02T03:22:41.783Z,1.57
2019-05-02T03:23:15.181Z,1.63
2019-05-02T03:24:01.719Z,1.30
2019-05-02T03:24:30.538Z,1.60
2019-05-02T03:25:09.337Z,1.63
2019-05-02T03:25:50.885Z,1.50
2019-05-02T03:26:33.261Z,1.40
2019-05-02T03:27:09.522Z,1.60
2019-05-02T03:27:50.167Z,1.63
2019-05-02T03:28:27.278Z,1.90
2019-05-02T03:29:04.470Z,2.07
2019-05-02T03:29:44.423Z,1.90
2019-05-02T03:30:30.834Z,1.40
2019-05-02T03:30:57.064Z,1.30
2019-05-02T03:31:44.421Z,1.97
2019-05-02T03:32:33.524Z,1.50
2019-05-02T03:33:09.560Z,2.10
2019-05-02T03:33:51.391Z,1.73
2019-05-02T03:34:18.168Z,2.47
2019-05-02T03:34:54.625Z,1.70
2019-05-02T03:35:43.294Z,2.33
2019-05-02T03:36:26.756Z,2.40
2019-05-02T03:36:48.002Z,1.90
2019-05-02T03:37:24.801Z,1.30
2019-05-02T03:38:02.105Z,1.90
2019-05-02T03:38:38.561Z,1.60
2019-05-02T03:39:17.349Z,1.40
2019-05-02T03:39:57.071Z,1.50
2019-05-02T03:40:38.466Z,2.23
2019-05-02T03:41:13.107Z,1.33
2019-05-02T03:41:48.293Z,1.30
2019-05-02T03:42:25.342Z,1.50
2019-05-02T03:43:02.038Z,1.63
2019-05-02T03:43:39.039Z,1.63
2019-05-02T03:44:24.890Z,1.73
2019-05-02T03:44:56.018Z,1.60
2019-05-02T03:45:40.179Z,1.87
2019-05-02T03:46:13.406Z,1.77
2019-05-02T03:46:54.179Z,1.63
2019-05-02T03:47:29.951Z,1.50
2019-05-02T03:48:06.835Z,1.60
2019-05-02T03:48:43.157Z,1.80
2019-05-02T03:49:19.384Z,1.63
2019-05-02T03:49:55.849Z,1.37
2019-05-02T03:50:35.423Z,1.40
2019-05-02T03:51:19.243Z,1.30
2019-05-02T03:51:49.121Z,1.90
2019-05-02T03:52:29.578Z,1.80
2019-05-02T03:53:06.030Z,1.63
2019-05-02T03:53:42.724Z,1.50
2019-05-02T03:54:20.170Z,1.87
2019-05-02T03:54:59.058Z,1.40
2019-05-02T03:55:36.709Z,1.30
2019-05-02T03:56:17.205Z,2.00
2019-05-02T03:56:54.352Z,2.50
2019-05-02T03:57:36.110Z,1.37
2019-05-02T03:58:14.171Z,1.40
2019-05-02T03:58:55.940Z,1.27
2019-05-02T03:59:38.748Z,1.40
2019-05-02T04:00:13.639Z,1.73
2019-05-02T04:00:55.136Z,1.53
2019-05-02T04:01:27.562Z,1.63
2019-05-02T04:02:04.125Z,1.60
2019-05-02T04:02:44.146Z,1.67
2019-05-02T04:03:22.189Z,1.37
2019-05-02T04:03:58.482Z,1.70
2019-05-02T04:04:34.782Z,1.77
2019-05-02T04:05:11.121Z,1.30
2019-05-02T04:05:47.562Z,1.13
2019-05-02T04:06:24.320Z,1.33
2019-05-02T04:07:07.308Z,1.73
2019-05-02T04:07:47.497Z,1.50
2019-05-02T04:08:24.017Z,1.87
2019-05-02T04:09:07.847Z,1.63
2019-05-02T04:09:44.925Z,1.60
2019-05-02T04:10:59.375Z,1.63
2019-05-02T04:11:38.778Z,0.80
2019-05-02T04:12:18.946Z,1.43
2019-05-02T04:12:53.184Z,1.40
2019-05-02T04:13:30.130Z,1.40
2019-05-02T04:14:14.901Z,1.20
2019-05-02T04:14:45.089Z,1.20
2019-05-02T04:15:21.391Z,1.50
2019-05-02T04:15:58.008Z,1.20
2019-05-02T04:16:34.591Z,1.40
2019-05-02T04:17:11.968Z,1.53
2019-05-02T04:17:48.473Z,1.30
2019-05-02T04:18:24.802Z,1.60
2019-05-02T04:19:07.949Z,1.37
2019-05-02T04:19:45.601Z,1.97
2019-05-02T04:20:22.428Z,1.30
2019-05-02T04:20:58.713Z,1.47
2019-05-02T04:21:36.488Z,1.40
2019-05-02T04:22:13.034Z,1.60
2019-05-02T04:23:03.516Z,1.63
2019-05-02T04:23:40.646Z,1.23
2019-05-02T04:24:17.428Z,1.20
2019-05-02T04:24:56.638Z,1.23
2019-05-02T04:25:42.017Z,1.57
2019-05-02T04:26:18.966Z,1.20
2019-05-02T04:27:00.822Z,1.57
2019-05-02T04:27:37.661Z,1.50
2019-05-02T04:28:14.463Z,1.53
2019-05-02T04:28:53.815Z,1.00
2019-05-02T04:29:33.134Z,1.30
2019-05-02T04:30:14.230Z,1.33
2019-05-02T04:30:53.998Z,1.00
2019-05-02T04:31:32.207Z,1.60
2019-05-02T04:32:11.885Z,1.03
2019-05-02T04:32:49.805Z,1.30
2019-05-02T04:33:29.073Z,1.33
2019-05-02T04:34:13.660Z,1.20
2019-05-02T04:34:49.092Z,1.40
2019-05-02T04:35:28.703Z,1.63
2019-05-02T04:36:13.764Z,1.70
2019-05-02T04:36:41.054Z,1.63
2019-05-02T04:37:18.837Z,1.30
2019-05-02T04:37:57.480Z,1.50
2019-05-02T04:38:44.616Z,1.53
2019-05-02T04:39:15.750Z,1.27
2019-05-02T04:39:53.603Z,2.10
2019-05-02T04:40:44.917Z,2.03
2019-05-02T04:41:29.254Z,1.30
2019-05-02T04:41:58.630Z,1.27
2019-05-02T04:42:39.167Z,1.10
2019-05-02T04:43:14.450Z,1.00
2019-05-02T04:43:57.334Z,1.47
2019-05-02T04:44:44.206Z,1.40
2019-05-02T04:45:25.102Z,0.97
2019-05-02T04:45:56.215Z,1.40
2019-05-02T04:46:31.296Z,1.37
2019-05-02T04:47:17.088Z,1.30
2019-05-02T04:47:54.894Z,1.20
2019-05-02T04:48:34.569Z,1.50
2019-05-02T04:49:11.304Z,1.17
2019-05-02T04:49:51.512Z,1.17
2019-05-02T04:50:29.449Z,1.13
2019-05-02T04:51:10.291Z,1.27
2019-05-02T04:51:50.889Z,1.17
2019-05-02T04:52:22.370Z,1.20
2019-05-02T04:52:59.375Z,1.13
2019-05-02T04:53:42.236Z,1.40
2019-05-02T04:54:22.046Z,1.30
2019-05-02T04:54:51.571Z,1.50
2019-05-02T04:55:32.303Z,1.10
2019-05-02T04:56:10.187Z,1.07
2019-05-02T04:56:49.685Z,1.10
2019-05-02T04:57:27.135Z,1.20
2019-05-02T04:58:01.792Z,1.37
2019-05-02T04:58:40.637Z,1.37
2019-05-02T04:59:20.001Z,0.97
2019-05-02T05:00:06.128Z,0.93
2019-05-02T05:00:38.973Z,1.27
2019-05-02T05:01:14.718Z,1.33
2019-05-02T05:01:57.386Z,1.23
2019-05-02T05:02:36.170Z,1.03
2019-05-02T05:03:15.464Z,1.10
2019-05-02T05:03:49.190Z,0.90
2019-05-02T05:04:33.454Z,1.40
2019-05-02T05:05:08.219Z,0.90
2019-05-02T05:05:47.762Z,0.93
2019-05-02T05:06:24.142Z,1.27
2019-05-02T05:07:01.558Z,1.27
2019-05-02T05:07:45.836Z,1.07
2019-05-02T05:08:26.061Z,0.93
2019-05-02T05:08:58.481Z,1.30
2019-05-02T05:09:34.147Z,0.70
2019-05-02T05:10:10.968Z,0.83
2019-05-02T05:10:49.662Z,1.10
2019-05-02T05:11:27.447Z,1.10
2019-05-02T05:12:04.363Z,1.03
2019-05-02T05:12:41.772Z,1.10
2019-05-02T05:13:22.951Z,1.40
2019-05-02T05:14:00.318Z,1.30
2019-05-02T05:14:39.241Z,1.60
2019-05-02T05:15:33.740Z,1.30
2019-05-02T05:15:53.376Z,1.13
2019-05-02T05:16:29.711Z,1.17
2019-05-02T05:17:08.033Z,1.10
2019-05-02T05:17:44.395Z,0.80
2019-05-02T05:18:20.539Z,1.03
2019-05-02T05:18:57.866Z,1.07
2019-05-02T05:19:34.725Z,0.80
2019-05-02T05:20:15.515Z,1.50
2019-05-02T05:20:52.870Z,1.27
2019-05-02T05:21:30.286Z,1.37
2019-05-02T05:22:18.730Z,1.10
2019-05-02T05:22:54.909Z,0.80
2019-05-02T05:23:43.053Z,1.10
2019-05-02T05:24:32.830Z,0.87
2019-05-02T05:25:17.665Z,0.80
2019-05-02T05:26:03.352Z,1.60
2019-05-02T05:26:39.174Z,0.90
2019-05-02T05:27:18.998Z,0.83
2019-05-02T05:27:58.727Z,0.83
2019-05-02T05:28:35.098Z,1.00
2019-05-02T05:29:13.976Z,1.00
2019-05-02T05:29:48.715Z,0.90
2019-05-02T05:30:27.760Z,1.03
2019-05-02T05:31:07.713Z,1.00
2019-05-02T05:31:44.226Z,1.30
2019-05-02T05:32:21.580Z,0.80
2019-05-02T05:32:58.302Z,1.20
2019-05-02T05:33:34.756Z,1.10
2019-05-02T05:34:11.014Z,1.20
2019-05-02T05:34:48.060Z,1.10
2019-05-02T05:35:24.862Z,1.30
2019-05-02T05:36:01.126Z,0.80
2019-05-02T05:36:37.600Z,0.90
2019-05-02T05:37:13.966Z,0.73
2019-05-02T05:37:53.036Z,1.20
2019-05-02T05:38:32.224Z,1.10
2019-05-02T05:39:11.697Z,1.33
2019-05-02T05:39:48.767Z,1.30
2019-05-02T05:40:28.218Z,1.03
2019-05-02T05:41:08.167Z,0.70
2019-05-02T05:41:42.688Z,1.03
2019-05-02T05:42:23.446Z,1.03
2019-05-02T05:42:57.392Z,1.27
2019-05-02T05:43:33.922Z,0.90
2019-05-02T05:44:10.693Z,0.87
2019-05-02T05:44:48.329Z,1.50
2019-05-02T05:45:24.643Z,1.30
2019-05-02T05:46:09.223Z,0.93
2019-05-02T05:46:42.530Z,1.10
2019-05-02T05:47:21.820Z,1.30
2019-05-02T05:48:01.015Z,1.00
2019-05-02T05:48:40.539Z,0.80
2019-05-02T05:49:18.424Z,1.10
2019-05-02T05:49:57.708Z,0.97
2019-05-02T05:50:50.682Z,1.07
2019-05-02T05:51:27.730Z,1.10
2019-05-02T05:52:04.663Z,1.10
2019-05-02T05:52:42.481Z,1.03
2019-05-02T05:53:21.425Z,0.73
2019-05-02T05:54:05.295Z,0.90
2019-05-02T05:54:42.156Z,1.17
2019-05-02T05:55:24.230Z,0.97
2019-05-02T05:56:03.403Z,1.17
2019-05-02T05:56:42.905Z,1.47
2019-05-02T05:57:21.120Z,1.10
2019-05-02T05:58:01.767Z,1.50
2019-05-02T05:58:33.941Z,1.23
2019-05-02T05:59:11.067Z,1.20
2019-05-02T05:59:48.560Z,1.77
2019-05-02T06:00:25.096Z,1.10
2019-05-02T06:01:03.252Z,1.03
2019-05-02T06:01:42.170Z,0.73
2019-05-02T06:02:19.271Z,1.17
2019-05-02T06:03:01.336Z,0.90
2019-05-02T06:03:38.867Z,0.90
2019-05-02T06:04:13.851Z,1.27
2019-05-02T06:04:55.304Z,1.10
2019-05-02T06:05:33.115Z,0.87
2019-05-02T06:06:14.784Z,1.23
2019-05-02T06:06:53.978Z,0.93
2019-05-02T06:07:33.115Z,1.07
2019-05-02T06:08:13.837Z,0.93
2019-05-02T06:08:54.196Z,1.47
2019-05-02T06:09:31.208Z,0.80
2019-05-02T06:10:09.813Z,1.00
2019-05-02T06:10:47.245Z,0.90
2019-05-02T06:11:23.684Z,1.10
2019-05-02T06:12:00.643Z,0.90
2019-05-02T06:12:36.869Z,1.00
2019-05-02T06:13:13.752Z,0.87
2019-05-02T06:13:53.717Z,0.90
2019-05-02T06:14:30.465Z,1.00
2019-05-02T06:15:06.827Z,0.70
2019-05-02T06:15:45.891Z,0.90
2019-05-02T06:16:22.021Z,0.90
2019-05-02T06:16:58.400Z,1.17
2019-05-02T06:17:35.039Z,1.07
2019-05-02T06:18:11.401Z,0.80
2019-05-02T06:18:49.914Z,1.00
2019-05-02T06:19:26.238Z,0.80
2019-05-02T06:20:03.380Z,0.77
2019-05-02T06:20:40.367Z,0.80
2019-05-02T06:21:17.866Z,1.20
2019-05-02T06:21:54.221Z,0.90
2019-05-02T06:22:30.422Z,0.80
2019-05-02T06:23:10.547Z,1.30
2019-05-02T06:23:47.045Z,0.93
2019-05-02T06:24:23.317Z,0.87
2019-05-02T06:24:59.584Z,1.03
2019-05-02T06:25:37.300Z,1.03
2019-05-02T06:26:15.865Z,1.13
2019-05-02T06:26:53.190Z,1.17
2019-05-02T06:27:30.452Z,0.87
2019-05-02T06:28:07.052Z,0.90
2019-05-02T06:28:44.734Z,1.20
2019-05-02T06:29:21.137Z,1.23
2019-05-02T06:29:57.424Z,0.80
2019-05-02T06:30:33.681Z,0.90
2019-05-02T06:31:10.144Z,1.10
2019-05-02T06:31:46.560Z,0.87
2019-05-02T06:32:25.896Z,0.93
2019-05-02T06:33:03.032Z,0.90
2019-05-02T06:33:39.241Z,1.10
2019-05-02T06:34:15.904Z,1.20
2019-05-02T06:34:55.423Z,1.03
2019-05-02T06:35:33.877Z,0.60
2019-05-02T06:36:10.433Z,1.17
2019-05-02T06:36:46.893Z,0.80
2019-05-02T06:37:23.881Z,1.00
2019-05-02T06:38:00.471Z,1.17
2019-05-02T06:38:36.833Z,1.47
2019-05-02T06:39:13.342Z,1.13
2019-05-02T06:39:52.450Z,1.13
2019-05-02T06:40:44.639Z,0.87
2019-05-02T06:41:21.063Z,1.00
2019-05-02T06:41:57.636Z,0.80
2019-05-02T06:42:37.912Z,1.13
2019-05-02T06:43:13.757Z,0.93
2019-05-02T06:43:51.853Z,1.80
2019-05-02T06:44:29.135Z,1.10
2019-05-02T06:45:05.782Z,1.20
2019-05-02T06:45:47.603Z,0.90
2019-05-02T06:46:27.431Z,0.73
2019-05-02T06:47:05.644Z,1.40
2019-05-02T06:47:43.626Z,1.40
2019-05-02T06:48:24.315Z,1.13
2019-05-02T06:49:01.620Z,1.30
2019-05-02T06:49:40.217Z,1.20
2019-05-02T06:50:17.301Z,1.37
2019-05-02T06:50:53.533Z,1.30
2019-05-02T06:51:29.786Z,1.80
2019-05-02T06:52:06.395Z,1.67
2019-05-02T06:52:43.613Z,1.00
2019-05-02T06:53:19.902Z,1.27
2019-05-02T06:53:56.419Z,1.50
2019-05-02T06:54:33.714Z,1.83
2019-05-02T06:55:10.391Z,1.50
2019-05-02T06:55:48.782Z,2.17
2019-05-02T06:56:26.950Z,1.73
2019-05-02T06:57:06.275Z,1.50
2019-05-02T06:57:43.573Z,1.53
2019-05-02T06:58:19.940Z,1.60
2019-05-02T06:59:01.539Z,1.70
2019-05-02T06:59:42.475Z,2.07
2019-05-02T07:00:18.919Z,1.70
2019-05-02T07:00:58.977Z,1.40
2019-05-02T07:01:34.999Z,1.20
2019-05-02T07:02:12.124Z,2.17
2019-05-02T07:02:48.355Z,1.63
2019-05-02T07:03:27.575Z,2.50
2019-05-02T07:04:04.364Z,1.40
2019-05-02T07:04:40.888Z,1.53
2019-05-02T07:05:17.759Z,1.90
2019-05-02T07:05:58.813Z,1.80
2019-05-02T07:06:41.925Z,1.40
2019-05-02T07:07:14.139Z,1.77
2019-05-02T07:07:50.390Z,1.20
2019-05-02T07:08:27.481Z,1.47
2019-05-02T07:09:05.600Z,1.87
2019-05-02T07:09:42.200Z,1.73
2019-05-02T07:10:20.302Z,1.33
2019-05-02T07:11:01.252Z,1.03
2019-05-02T07:11:38.904Z,1.90
2019-05-02T07:12:18.039Z,1.53
2019-05-02T07:13:09.692Z,1.60
2019-05-02T07:13:36.458Z,1.73
2019-05-02T07:14:13.641Z,1.30
2019-05-02T07:14:50.205Z,1.10
2019-05-02T07:15:44.071Z,1.50
2019-05-02T07:16:49.595Z,1.63
2019-05-02T07:17:58.603Z,1.10
2019-05-02T07:18:42.004Z,1.30
2019-05-02T07:19:44.692Z,0.83
2019-05-02T07:20:21.154Z,1.40
2019-05-02T07:20:58.898Z,0.90
2019-05-02T07:21:35.610Z,0.90
2019-05-02T07:22:13.199Z,1.20
2019-05-02T07:22:49.496Z,1.30
2019-05-02T07:23:26.118Z,1.00
2019-05-02T07:24:03.210Z,1.50
2019-05-02T07:24:40.187Z,1.43
2019-05-02T07:25:18.548Z,1.47
2019-05-02T07:25:56.326Z,0.90
2019-05-02T07:26:34.197Z,0.90
2019-05-02T07:27:10.678Z,1.10
2019-05-02T07:27:47.353Z,1.07
2019-05-02T07:28:24.176Z,1.00
2019-05-02T07:29:00.620Z,1.10
2019-05-02T07:29:38.829Z,1.27
2019-05-02T07:30:15.514Z,1.30
2019-05-02T07:30:54.522Z,1.13
2019-05-02T07:31:30.498Z,1.13
2019-05-02T07:32:07.514Z,1.83
2019-05-02T07:32:44.233Z,1.43
2019-05-02T07:33:21.266Z,1.70
2019-05-02T07:33:57.511Z,1.37
2019-05-02T07:34:34.359Z,2.23
2019-05-02T07:35:10.786Z,1.53
2019-05-02T07:35:48.576Z,1.10
2019-05-02T07:36:25.990Z,1.70
2019-05-02T07:37:08.543Z,1.40
2019-05-02T07:37:43.995Z,1.40
2019-05-02T07:38:25.724Z,1.60
2019-05-02T07:39:05.223Z,2.03
2019-05-02T07:39:42.325Z,0.90
2019-05-02T07:40:22.088Z,1.70
2019-05-02T07:40:58.625Z,1.60
2019-05-02T07:41:37.298Z,1.47
2019-05-02T07:42:19.876Z,1.33
2019-05-02T07:42:57.431Z,1.63
2019-05-02T07:43:33.875Z,1.83
2019-05-02T07:44:10.806Z,2.07
2019-05-02T07:44:48.341Z,1.60
2019-05-02T07:45:25.043Z,1.57
2019-05-02T07:46:01.973Z,1.87
2019-05-02T07:46:51.560Z,1.13
2019-05-02T07:47:19.382Z,1.63
2019-05-02T07:47:55.848Z,1.23
2019-05-02T07:48:35.232Z,2.00
2019-05-02T07:49:12.239Z,1.30
2019-05-02T07:49:49.836Z,1.40
2019-05-02T07:50:27.112Z,1.27
2019-05-02T07:51:17.210Z,1.00
2019-05-02T07:51:52.390Z,1.20
2019-05-02T07:52:29.009Z,1.30
2019-05-02T07:53:09.664Z,1.27
2019-05-02T07:53:48.576Z,1.23
2019-05-02T07:54:26.809Z,1.00
2019-05-02T07:55:06.148Z,0.80
2019-05-02T07:55:44.038Z,1.20
2019-05-02T07:56:20.963Z,1.80
2019-05-02T07:56:57.339Z,1.23
2019-05-02T07:57:33.799Z,1.10
2019-05-02T07:58:10.677Z,1.17
2019-05-02T07:58:49.752Z,0.93
2019-05-02T07:59:26.126Z,1.00
2019-05-02T08:00:03.293Z,1.13
2019-05-02T08:00:40.754Z,1.10
2019-05-02T08:01:17.023Z,1.00
2019-05-02T08:01:53.627Z,1.10
2019-05-02T08:02:29.998Z,1.03
2019-05-02T08:03:06.826Z,1.23
2019-05-02T08:03:45.889Z,1.30
2019-05-02T08:04:22.235Z,0.90
2019-05-02T08:05:01.283Z,1.10
2019-05-02T08:05:39.103Z,1.10
2019-05-02T08:06:17.073Z,1.47
2019-05-02T08:06:55.049Z,1.40
2019-05-02T08:07:34.980Z,1.43
2019-05-02T08:08:12.058Z,1.60
2019-05-02T08:08:50.767Z,1.00
2019-05-02T08:09:29.274Z,1.30
2019-05-02T08:10:07.583Z,1.23
2019-05-02T08:10:53.801Z,0.97
2019-05-02T08:11:27.241Z,1.17
2019-05-02T08:12:03.489Z,1.20
2019-05-02T08:12:40.594Z,0.90
2019-05-02T08:13:19.306Z,1.10
2019-05-02T08:14:00.131Z,0.97
2019-05-02T08:14:36.396Z,1.40
2019-05-02T08:15:15.278Z,1.00
2019-05-02T08:15:52.448Z,0.90
2019-05-02T08:16:28.756Z,1.33
2019-05-02T08:17:16.143Z,1.30
2019-05-02T08:17:53.120Z,1.00
2019-05-02T08:18:25.102Z,1.00
2019-05-02T08:19:05.431Z,1.00
2019-05-02T08:19:41.939Z,1.30
2019-05-02T08:20:19.228Z,1.33
2019-05-02T08:20:58.537Z,1.13
2019-05-02T08:21:34.856Z,1.00
2019-05-02T08:22:14.748Z,1.33
2019-05-02T08:22:51.865Z,1.10
2019-05-02T08:23:28.224Z,0.90
2019-05-02T08:24:05.288Z,1.47
2019-05-02T08:24:41.942Z,1.20
2019-05-02T08:25:18.687Z,1.33
2019-05-02T08:25:55.174Z,1.60
2019-05-02T08:26:53.467Z,1.17
2019-05-02T08:27:51.205Z,1.53
2019-05-02T08:29:41.337Z,1.37
2019-05-02T08:30:35.400Z,1.10
2019-05-02T08:31:18.418Z,1.23
2019-05-02T08:31:54.732Z,1.00
2019-05-02T08:32:35.302Z,1.10
2019-05-02T08:33:12.473Z,1.17
2019-05-02T08:33:50.220Z,1.10
2019-05-02T08:34:33.898Z,1.30
2019-05-02T08:35:15.025Z,1.40
2019-05-02T08:35:51.935Z,1.00
2019-05-02T08:36:28.417Z,1.33
2019-05-02T08:37:12.608Z,1.90
2019-05-02T08:37:51.192Z,0.90
2019-05-02T08:38:27.500Z,0.87
2019-05-02T08:39:05.264Z,1.07
2019-05-02T08:39:54.202Z,1.70
2019-05-02T08:40:36.647Z,1.10